createdAt,value
2019-05-26T00:00:14.267Z,40.45
2019-05-26T00:02:46.318Z,43.08
2019-05-26T00:05:18.235Z,49.20
2019-05-26T00:07:50.323Z,48.20
2019-05-26T00:10:22.335Z,52.20
2019-05-26T00:12:54.293Z,54.90
2019-05-26T00:15:26.390Z,50.40
2019-05-26T00:17:58.435Z,49.25
2019-05-26T00:20:30.479Z,54.77
2019-05-26T00:23:03.655Z,51.85
2019-05-26T00:25:35.765Z,48.90
2019-05-26T00:28:07.811Z,47.67
2019-05-26T00:30:39.816Z,45.50
2019-05-26T00:33:12.845Z,45.80
2019-05-26T00:35:44.919Z,58.52
2019-05-26T00:38:17.047Z,43.02
2019-05-26T00:40:49.124Z,45.17
2019-05-26T00:43:21.107Z,43.35
2019-05-26T00:45:52.937Z,51.02
2019-05-26T00:48:24.950Z,42.20
2019-05-26T00:50:56.873Z,44.05
2019-05-26T00:53:28.852Z,50.78
2019-05-26T00:56:01.049Z,44.33
2019-05-26T00:58:33.202Z,43.45
2019-05-26T01:01:05.311Z,44.35
2019-05-26T01:03:37.346Z,41.88
2019-05-26T01:06:09.492Z,41.28
2019-05-26T01:08:41.548Z,47.88
2019-05-26T01:11:13.336Z,44.35
2019-05-26T01:13:45.301Z,40.98
2019-05-26T01:16:17.307Z,42.80
2019-05-26T01:18:49.219Z,44.70
2019-05-26T01:21:21.291Z,52.23
2019-05-26T01:23:53.235Z,59.65
2019-05-26T01:26:25.319Z,62.20
2019-05-26T01:28:57.280Z,64.53
2019-05-26T01:31:29.312Z,62.20
2019-05-26T01:34:01.362Z,59.48
2019-05-26T01:36:33.452Z,52.38
2019-05-26T01:39:07.480Z,46.37
2019-05-26T01:41:39.459Z,48.00
2019-05-26T01:44:11.243Z,49.15
2019-05-26T01:46:43.101Z,41.55
2019-05-26T01:49:14.971Z,38.60
2019-05-26T01:51:47.042Z,35.38
2019-05-26T01:54:18.827Z,42.45
2019-05-26T01:56:50.817Z,46.13
2019-05-26T01:59:22.800Z,44.42
2019-05-26T02:01:58.666Z,37.80
2019-05-26T02:04:29.464Z,48.38
2019-05-26T02:07:01.646Z,42.78
2019-05-26T02:09:34.738Z,35.48
2019-05-26T02:12:06.798Z,32.13
2019-05-26T02:14:38.660Z,38.48
2019-05-26T02:17:10.801Z,33.50
2019-05-26T02:19:42.719Z,35.25
2019-05-26T02:22:14.829Z,39.75
2019-05-26T02:24:46.776Z,39.03
2019-05-26T02:27:18.657Z,31.52
2019-05-26T02:29:50.622Z,38.58
2019-05-26T02:32:22.594Z,32.23
2019-05-26T02:34:54.709Z,35.38
2019-05-26T02:37:26.663Z,38.67
2019-05-26T02:39:59.562Z,41.35
2019-05-26T02:42:31.611Z,38.13
2019-05-26T02:45:04.857Z,46.75
2019-05-26T02:47:36.700Z,46.48
2019-05-26T02:50:08.674Z,55.60
2019-05-26T02:52:40.665Z,53.52
2019-05-26T02:55:12.656Z,52.50
2019-05-26T02:57:44.715Z,61.35
2019-05-26T03:00:20.751Z,58.50
2019-05-26T03:02:52.605Z,66.28
2019-05-26T03:05:24.525Z,61.60
2019-05-26T03:07:56.725Z,54.88
2019-05-26T03:10:28.724Z,51.55
2019-05-26T03:13:00.834Z,57.65
2019-05-26T03:15:34.483Z,67.75
2019-05-26T03:18:07.038Z,69.58
2019-05-26T03:20:40.197Z,63.50
2019-05-26T03:23:12.249Z,57.50
2019-05-26T03:25:44.134Z,65.85
2019-05-26T03:28:16.057Z,61.28
2019-05-26T03:30:48.134Z,59.80
2019-05-26T03:33:19.981Z,53.15
2019-05-26T03:35:51.896Z,48.92
2019-05-26T03:38:23.899Z,50.35
2019-05-26T03:40:55.897Z,61.77
2019-05-26T03:43:27.950Z,55.92
2019-05-26T03:46:12.044Z,52.40
2019-05-26T03:48:44.057Z,51.98
2019-05-26T03:51:16.025Z,52.13
2019-05-26T03:53:48.119Z,52.93
2019-05-26T03:56:20.179Z,56.05
2019-05-26T03:58:52.093Z,57.27
2019-05-26T04:01:23.952Z,55.40
2019-05-26T04:03:55.909Z,50.90
2019-05-26T04:06:27.787Z,45.75
2019-05-26T04:08:59.724Z,48.28
2019-05-26T04:11:31.795Z,47.95
2019-05-26T04:14:04.073Z,41.42
2019-05-26T04:16:36.218Z,46.85
2019-05-26T04:19:08.233Z,64.77
2019-05-26T04:21:40.067Z,53.15
2019-05-26T04:24:12.073Z,50.75
2019-05-26T04:26:44.109Z,54.85
2019-05-26T04:29:16.219Z,57.75
2019-05-26T04:31:48.114Z,51.20
2019-05-26T04:34:20.127Z,55.33
2019-05-26T04:36:52.104Z,46.20
2019-05-26T04:39:24.182Z,37.70
2019-05-26T04:41:56.066Z,37.53
2019-05-26T04:44:28.114Z,39.55
2019-05-26T04:47:00.050Z,32.70
2019-05-26T04:49:37.004Z,38.48
2019-05-26T04:52:06.103Z,41.20
2019-05-26T04:54:37.989Z,44.23
2019-05-26T04:57:09.862Z,45.92
2019-05-26T04:59:41.694Z,53.42
2019-05-26T05:02:13.559Z,59.23
2019-05-26T05:04:45.495Z,53.02
2019-05-26T05:07:17.537Z,57.80
2019-05-26T05:09:49.494Z,65.90
2019-05-26T05:12:21.989Z,39.55
2019-05-26T05:14:53.808Z,30.60
2019-05-26T05:17:25.767Z,35.05
2019-05-26T05:19:57.939Z,23.67
2019-05-26T05:22:29.912Z,19.70
2019-05-26T05:25:01.852Z,21.10
2019-05-26T05:27:33.810Z,21.65
2019-05-26T05:30:07.459Z,25.90
2019-05-26T05:32:39.361Z,26.87
2019-05-26T05:35:11.263Z,27.65
2019-05-26T05:37:43.136Z,24.07
2019-05-26T05:40:15.087Z,12.95
2019-05-26T05:42:47.094Z,14.15
2019-05-26T05:45:18.899Z,12.85
2019-05-26T05:47:50.637Z,13.72
2019-05-26T05:50:22.408Z,11.30
2019-05-26T05:52:54.190Z,12.80
2019-05-26T05:55:25.990Z,10.88
2019-05-26T05:57:57.679Z,18.15
2019-05-26T06:00:29.628Z,13.68
2019-05-26T06:03:01.517Z,20.50
2019-05-26T06:05:33.451Z,10.25
2019-05-26T06:08:05.346Z,11.20
2019-05-26T06:10:37.330Z,20.08
2019-05-26T06:13:10.455Z,12.70
2019-05-26T06:15:42.426Z,13.55
2019-05-26T06:18:14.241Z,13.75
2019-05-26T06:20:46.127Z,10.82
2019-05-26T06:23:17.946Z,13.25
2019-05-26T06:25:49.668Z,10.53
2019-05-26T06:28:21.378Z,10.03
2019-05-26T06:30:53.205Z,9.33
2019-05-26T06:33:24.969Z,14.70
2019-05-26T06:35:56.814Z,17.20
2019-05-26T06:38:28.510Z,7.62
2019-05-26T06:41:00.303Z,16.62
2019-05-26T06:43:32.074Z,10.72
2019-05-26T06:46:03.883Z,12.55
2019-05-26T06:48:35.627Z,7.37
2019-05-26T06:51:07.502Z,7.90
2019-05-26T06:53:39.535Z,12.50
2019-05-26T06:56:11.374Z,17.05
2019-05-26T06:58:43.218Z,13.15
2019-05-26T07:01:14.923Z,15.13
2019-05-26T07:03:46.617Z,10.88
2019-05-26T07:08:50.569Z,6.78
2019-05-26T07:11:22.378Z,9.43
2019-05-26T07:13:54.236Z,7.17
2019-05-26T07:16:37.649Z,9.15
2019-05-26T07:18:59.706Z,13.08
2019-05-26T07:21:32.678Z,13.53
2019-05-26T07:24:04.493Z,11.43
2019-05-26T07:26:36.359Z,8.18
2019-05-26T07:29:08.067Z,12.37
2019-05-26T07:31:39.926Z,7.90
2019-05-26T07:34:11.664Z,11.45
2019-05-26T07:36:43.468Z,6.78
2019-05-26T07:39:15.277Z,6.80
2019-05-26T07:41:47.005Z,10.58
2019-05-26T07:44:18.699Z,5.85
2019-05-26T07:46:50.511Z,6.45
2019-05-26T07:49:22.389Z,8.83
2019-05-26T07:51:54.211Z,10.48
2019-05-26T07:54:26.256Z,4.80
2019-05-26T07:56:58.013Z,16.52
2019-05-26T07:59:29.875Z,6.03
2019-05-26T08:02:01.671Z,4.78
2019-05-26T08:04:33.434Z,14.83
2019-05-26T08:07:05.712Z,11.15
2019-05-26T08:09:37.506Z,4.55
2019-05-26T08:12:24.574Z,12.37
2019-05-26T08:14:42.891Z,7.05
2019-05-26T08:17:14.688Z,14.38
2019-05-26T08:19:46.505Z,7.53
2019-05-26T08:22:18.254Z,4.15
2019-05-26T08:24:50.146Z,5.87
2019-05-26T08:27:21.874Z,6.87
2019-05-26T08:29:55.390Z,4.65
2019-05-26T08:32:27.102Z,5.15
2019-05-26T08:34:58.913Z,3.15
2019-05-26T08:37:30.875Z,8.78
2019-05-26T08:40:20.407Z,7.72
2019-05-26T08:42:52.388Z,3.67
2019-05-26T08:45:24.214Z,7.10
2019-05-26T08:47:55.987Z,4.30
2019-05-26T08:50:27.810Z,6.62
2019-05-26T08:52:59.652Z,7.85
2019-05-26T08:55:31.416Z,4.75
2019-05-26T08:58:03.217Z,4.12
2019-05-26T09:00:34.875Z,7.97
2019-05-26T09:03:06.819Z,4.70
2019-05-26T09:05:38.567Z,6.45
2019-05-26T09:08:10.434Z,4.20
2019-05-26T09:10:42.102Z,5.65
2019-05-26T09:13:14.045Z,8.40
2019-05-26T09:15:46.060Z,5.97
2019-05-26T09:18:17.910Z,4.55
2019-05-26T09:20:49.673Z,4.87
2019-05-26T09:23:21.762Z,9.93
2019-05-26T09:25:53.531Z,5.60
2019-05-26T09:28:25.340Z,9.23
2019-05-26T09:30:57.182Z,10.08
2019-05-26T09:33:30.068Z,8.85
2019-05-26T09:36:01.750Z,8.98
2019-05-26T09:38:33.595Z,9.50
2019-05-26T09:41:05.442Z,8.40
2019-05-26T09:43:37.245Z,13.10
2019-05-26T09:46:09.162Z,15.90
2019-05-26T09:48:41.335Z,16.27
2019-05-26T09:51:13.331Z,12.10
2019-05-26T09:53:45.076Z,16.20
2019-05-26T09:56:16.945Z,12.65
2019-05-26T09:58:48.867Z,13.22
2019-05-26T10:01:20.687Z,11.25
2019-05-26T10:03:52.534Z,10.25
2019-05-26T10:06:24.244Z,9.58
2019-05-26T10:08:56.012Z,11.22
2019-05-26T10:11:27.855Z,16.82
2019-05-26T10:13:59.927Z,19.12
2019-05-26T10:16:32.267Z,13.50
2019-05-26T10:19:04.715Z,8.23
2019-05-26T10:21:36.473Z,6.20
2019-05-26T10:24:08.500Z,9.05
2019-05-26T10:26:41.159Z,6.78
2019-05-26T10:29:12.929Z,6.15
2019-05-26T10:31:44.592Z,6.90
2019-05-26T10:34:16.553Z,5.33
2019-05-26T10:36:48.287Z,5.50
2019-05-26T10:39:20.172Z,6.05
2019-05-26T10:41:52.016Z,7.10
2019-05-26T10:44:23.973Z,8.13
2019-05-26T10:46:55.716Z,9.30
2019-05-26T10:49:27.412Z,5.85
2019-05-26T10:51:59.285Z,5.15
2019-05-26T10:54:31.194Z,4.10
2019-05-26T10:57:03.075Z,8.18
2019-05-26T10:59:34.811Z,7.03
2019-05-26T11:02:08.188Z,6.25
2019-05-26T11:04:39.997Z,5.42
2019-05-26T11:07:11.850Z,6.85
2019-05-26T11:09:43.604Z,5.72
2019-05-26T11:12:15.559Z,4.67
2019-05-26T11:14:47.624Z,4.33
2019-05-26T11:17:19.556Z,3.95
2019-05-26T11:19:51.436Z,4.78
2019-05-26T11:22:23.265Z,4.30
2019-05-26T11:24:56.134Z,5.97
2019-05-26T11:27:28.987Z,7.10
2019-05-26T11:30:00.831Z,6.90
2019-05-26T11:32:32.594Z,4.00
2019-05-26T11:35:05.322Z,6.70
2019-05-26T11:37:37.078Z,5.30
2019-05-26T11:40:08.908Z,3.37
2019-05-26T11:42:40.614Z,3.62
2019-05-26T11:45:12.561Z,9.00
2019-05-26T11:47:45.430Z,6.40
2019-05-26T11:50:17.295Z,4.58
2019-05-26T11:52:48.957Z,6.33
2019-05-26T11:55:20.873Z,12.82
2019-05-26T11:57:52.619Z,7.72
2019-05-26T12:00:24.494Z,7.92
2019-05-26T12:03:00.498Z,6.03
2019-05-26T12:05:31.637Z,4.97
2019-05-26T12:08:03.535Z,4.97
2019-05-26T12:10:35.838Z,17.92
2019-05-26T12:13:07.589Z,22.82
2019-05-26T12:15:39.677Z,23.38
2019-05-26T12:18:11.660Z,11.75
2019-05-26T12:20:43.730Z,6.90
2019-05-26T12:23:15.411Z,8.65
2019-05-26T12:25:48.748Z,5.00
2019-05-26T12:28:20.641Z,3.45
2019-05-26T12:30:52.425Z,4.90
2019-05-26T12:33:24.804Z,5.67
2019-05-26T12:35:56.977Z,4.50
2019-05-26T12:38:29.944Z,7.72
2019-05-26T12:41:01.823Z,4.58
2019-05-26T12:43:33.695Z,5.37
2019-05-26T12:46:05.695Z,7.42
2019-05-26T12:48:37.458Z,4.15
2019-05-26T12:51:09.321Z,4.85
2019-05-26T12:53:40.982Z,6.00
2019-05-26T12:56:13.010Z,5.12
2019-05-26T12:58:44.858Z,7.58
2019-05-26T13:01:16.782Z,7.55
2019-05-26T13:03:48.526Z,7.53
2019-05-26T13:06:20.316Z,16.52
2019-05-26T13:08:52.158Z,17.27
2019-05-26T13:11:24.232Z,20.30
2019-05-26T13:13:56.267Z,11.12
2019-05-26T13:16:28.135Z,7.67
2019-05-26T13:18:59.821Z,8.93
2019-05-26T13:21:31.533Z,13.75
2019-05-26T13:24:04.811Z,22.15
2019-05-26T13:26:38.308Z,17.07
2019-05-26T13:29:11.390Z,13.78
2019-05-26T13:31:43.248Z,11.05
2019-05-26T13:34:15.662Z,9.00
2019-05-26T13:36:47.470Z,7.22
2019-05-26T13:39:19.228Z,5.25
2019-05-26T13:41:50.946Z,5.03
2019-05-26T13:44:22.607Z,4.50
2019-05-26T13:46:54.420Z,12.50
2019-05-26T13:49:26.197Z,6.70
2019-05-26T13:51:58.077Z,8.75
2019-05-26T13:54:32.174Z,5.85
2019-05-26T13:57:04.075Z,4.87
2019-05-26T13:59:36.013Z,7.97
2019-05-26T14:02:08.010Z,7.95
2019-05-26T14:04:39.773Z,10.70
2019-05-26T14:07:11.638Z,9.40
2019-05-26T14:09:43.381Z,29.98
2019-05-26T14:12:15.392Z,16.35
2019-05-26T14:14:47.223Z,9.58
2019-05-26T14:17:19.200Z,12.45
2019-05-26T14:19:51.054Z,9.10
2019-05-26T14:22:22.792Z,12.15
2019-05-26T14:24:54.650Z,9.63
2019-05-26T14:27:26.433Z,7.97
2019-05-26T14:30:00.004Z,9.93
2019-05-26T14:32:32.033Z,11.50
2019-05-26T14:35:05.169Z,9.05
2019-05-26T14:37:37.051Z,7.12
2019-05-26T14:40:10.265Z,8.68
2019-05-26T14:42:42.202Z,8.00
2019-05-26T14:45:14.052Z,11.12
2019-05-26T14:47:45.918Z,8.95
2019-05-26T14:50:17.952Z,8.78
2019-05-26T14:52:49.881Z,12.53
2019-05-26T14:55:21.993Z,20.25
2019-05-26T14:57:53.904Z,31.37
2019-05-26T15:00:26.025Z,35.08
2019-05-26T15:02:58.116Z,34.23
2019-05-26T15:05:30.232Z,37.38
2019-05-26T15:08:02.374Z,39.92
2019-05-26T15:10:34.382Z,41.08
2019-05-26T15:13:06.489Z,30.00
2019-05-26T15:15:38.451Z,28.35
2019-05-26T15:18:10.449Z,29.20
2019-05-26T15:20:42.766Z,25.02
2019-05-26T15:23:14.741Z,25.48
2019-05-26T15:25:46.811Z,23.32
2019-05-26T15:28:18.708Z,22.42
2019-05-26T15:30:50.681Z,18.55
2019-05-26T15:33:22.758Z,20.10
2019-05-26T15:35:55.650Z,18.10
2019-05-26T15:38:41.997Z,14.75
2019-05-26T15:41:01.466Z,17.23
2019-05-26T15:43:33.418Z,13.95
2019-05-26T15:46:05.436Z,13.13
2019-05-26T15:48:38.532Z,13.10
2019-05-26T15:51:10.457Z,17.87
2019-05-26T15:53:42.301Z,28.50
2019-05-26T15:56:14.311Z,22.67
2019-05-26T15:58:46.300Z,20.45
2019-05-26T16:01:18.428Z,16.25
2019-05-26T16:03:50.351Z,14.98
2019-05-26T16:06:23.203Z,15.80
2019-05-26T16:08:55.035Z,8.48
2019-05-26T16:11:26.786Z,8.95
2019-05-26T16:13:59.753Z,7.90
2019-05-26T16:16:40.595Z,9.68
2019-05-26T16:19:04.997Z,11.78
2019-05-26T16:21:36.897Z,10.25
2019-05-26T16:24:09.855Z,13.58
2019-05-26T16:26:41.925Z,13.43
2019-05-26T16:29:14.920Z,21.77
2019-05-26T16:31:47.050Z,23.35
2019-05-26T16:34:18.981Z,25.90
2019-05-26T16:36:50.956Z,22.52
2019-05-26T16:39:36.082Z,19.17
2019-05-26T16:41:57.079Z,16.17
2019-05-26T16:44:29.186Z,14.58
2019-05-26T16:47:01.097Z,12.82
2019-05-26T16:49:34.233Z,13.35
2019-05-26T16:52:06.681Z,12.43
2019-05-26T16:54:38.501Z,9.03
2019-05-26T16:57:10.371Z,10.60
2019-05-26T16:59:42.571Z,11.63
2019-05-26T17:02:14.596Z,9.15
2019-05-26T17:04:46.461Z,11.18
2019-05-26T17:07:18.492Z,13.75
2019-05-26T17:09:50.584Z,15.38
2019-05-26T17:12:22.669Z,15.38
2019-05-26T17:14:54.743Z,12.70
2019-05-26T17:17:26.633Z,19.02
2019-05-26T17:19:58.755Z,20.40
2019-05-26T17:22:30.740Z,23.60
2019-05-26T17:25:02.813Z,23.60
2019-05-26T17:27:34.800Z,20.77
2019-05-26T17:30:06.967Z,19.45
2019-05-26T17:32:38.791Z,25.37
2019-05-26T17:35:11.820Z,22.58
2019-05-26T17:37:43.719Z,22.82
2019-05-26T17:40:15.829Z,22.45
2019-05-26T17:42:47.893Z,20.45
2019-05-26T17:45:20.013Z,28.15
2019-05-26T17:47:51.929Z,20.70
2019-05-26T17:50:24.679Z,21.57
2019-05-26T17:52:56.658Z,26.02
2019-05-26T17:55:28.648Z,17.23
2019-05-26T17:58:00.563Z,19.02
2019-05-26T18:00:32.602Z,21.60
2019-05-26T18:03:04.686Z,19.73
2019-05-26T18:05:36.686Z,21.00
2019-05-26T18:08:08.844Z,22.98
2019-05-26T18:10:41.240Z,25.68
2019-05-26T18:13:13.236Z,30.32
2019-05-26T18:15:45.365Z,29.18
2019-05-26T18:18:17.256Z,33.18
2019-05-26T18:20:49.351Z,31.30
2019-05-26T18:23:21.356Z,25.95
2019-05-26T18:25:53.263Z,24.72
2019-05-26T18:28:25.507Z,23.98
2019-05-26T18:30:57.552Z,20.65
2019-05-26T18:33:29.585Z,17.23
2019-05-26T18:36:01.572Z,14.68
2019-05-26T18:38:33.527Z,13.35
2019-05-26T18:41:05.506Z,14.20
2019-05-26T18:43:38.206Z,12.35
2019-05-26T18:46:10.117Z,17.27
2019-05-26T18:48:41.921Z,14.03
2019-05-26T18:51:13.966Z,16.75
2019-05-26T18:53:46.036Z,13.43
2019-05-26T18:56:17.892Z,19.20
2019-05-26T18:58:49.677Z,19.70
2019-05-26T19:01:21.612Z,24.50
2019-05-26T19:03:53.471Z,25.30
2019-05-26T19:06:25.578Z,32.10
2019-05-26T19:08:57.718Z,35.52
2019-05-26T19:11:29.681Z,42.15
2019-05-26T19:14:01.467Z,43.73
2019-05-26T19:16:33.392Z,46.92
2019-05-26T19:19:05.409Z,49.55
2019-05-26T19:21:37.382Z,52.25
2019-05-26T19:24:09.364Z,57.30
2019-05-26T19:26:41.442Z,41.18
2019-05-26T19:29:13.438Z,54.63
2019-05-26T19:31:45.666Z,48.30
2019-05-26T19:34:17.638Z,48.33
2019-05-26T19:36:49.686Z,37.67
2019-05-26T19:39:21.636Z,40.12
2019-05-26T19:41:53.727Z,29.48
2019-05-26T19:44:25.680Z,31.97
2019-05-26T19:46:57.839Z,30.52
2019-05-26T19:49:29.914Z,29.37
2019-05-26T19:52:02.004Z,25.02
2019-05-26T19:54:33.943Z,26.52
2019-05-26T19:57:05.951Z,25.62
2019-05-26T19:59:37.871Z,18.55
2019-05-26T20:02:18.337Z,27.50
2019-05-26T20:04:43.863Z,23.35
2019-05-26T20:07:16.926Z,21.23
2019-05-26T20:09:49.025Z,22.42
2019-05-26T20:12:21.110Z,22.05
2019-05-26T20:14:53.024Z,22.37
2019-05-26T20:17:25.152Z,21.52
2019-05-26T20:19:57.115Z,27.13
2019-05-26T20:22:29.413Z,21.48
2019-05-26T20:25:01.472Z,25.10
2019-05-26T20:27:33.580Z,18.27
2019-05-26T20:30:06.523Z,25.08
2019-05-26T20:32:38.358Z,24.40
2019-05-26T20:35:10.302Z,19.50
2019-05-26T20:37:42.208Z,21.93
2019-05-26T20:40:14.189Z,20.23
2019-05-26T20:42:46.259Z,21.42
2019-05-26T20:45:18.205Z,20.12
2019-05-26T20:47:50.204Z,25.92
2019-05-26T20:50:29.013Z,17.42
2019-05-26T20:52:55.825Z,15.38
2019-05-26T20:55:27.746Z,16.85
2019-05-26T20:57:59.640Z,16.15
2019-05-26T21:00:31.708Z,13.80
2019-05-26T21:03:03.733Z,17.12
2019-05-26T21:05:35.710Z,18.95
2019-05-26T21:08:07.520Z,19.32
2019-05-26T21:10:39.630Z,16.82
2019-05-26T21:13:11.592Z,16.62
2019-05-26T21:15:43.557Z,16.62
2019-05-26T21:18:15.653Z,20.15
2019-05-26T21:20:47.542Z,14.33
2019-05-26T21:23:22.619Z,16.35
2019-05-26T21:25:53.370Z,19.05
2019-05-26T21:28:25.395Z,18.73
2019-05-26T21:30:57.443Z,21.97
2019-05-26T21:33:29.441Z,19.90
2019-05-26T21:36:01.317Z,16.97
2019-05-26T21:38:33.220Z,22.15
2019-05-26T21:41:05.122Z,17.27
2019-05-26T21:43:38.154Z,19.67
2019-05-26T21:46:10.000Z,18.55
2019-05-26T21:48:41.885Z,17.57
2019-05-26T21:51:14.028Z,19.00
2019-05-26T21:53:46.073Z,22.25
2019-05-26T21:56:18.147Z,21.42
2019-05-26T21:58:50.220Z,21.73
2019-05-26T22:01:22.278Z,40.20
2019-05-26T22:03:54.440Z,31.95
2019-05-26T22:06:26.439Z,32.10
2019-05-26T22:08:58.443Z,34.70
2019-05-26T22:11:31.414Z,30.27
2019-05-26T22:14:03.427Z,30.37
2019-05-26T22:16:35.349Z,29.70
2019-05-26T22:19:07.430Z,33.08
2019-05-26T22:21:39.354Z,38.05
2019-05-26T22:24:11.318Z,36.23
2019-05-26T22:26:43.360Z,37.93
2019-05-26T22:29:15.361Z,47.25
2019-05-26T22:31:47.412Z,41.73
2019-05-26T22:34:19.465Z,33.90
2019-05-26T22:36:51.464Z,38.85
2019-05-26T22:39:23.317Z,37.08
2019-05-26T22:41:55.150Z,33.95
2019-05-26T22:44:27.069Z,38.28
2019-05-26T22:46:59.157Z,40.60
2019-05-26T22:49:31.170Z,40.33
2019-05-26T22:52:03.219Z,43.78
2019-05-26T22:54:36.217Z,46.68
2019-05-26T22:57:08.332Z,50.88
2019-05-26T22:59:40.353Z,51.40
2019-05-26T23:02:12.319Z,50.65
2019-05-26T23:04:44.462Z,39.65
2019-05-26T23:07:16.554Z,39.98
2019-05-26T23:09:48.868Z,35.75
2019-05-26T23:12:20.898Z,34.05
2019-05-26T23:14:53.075Z,34.35
2019-05-26T23:17:26.162Z,33.48
2019-05-26T23:19:58.121Z,39.98
2019-05-26T23:22:30.354Z,29.50
2019-05-26T23:25:02.356Z,27.95
2019-05-26T23:27:34.388Z,32.55
2019-05-26T23:30:09.149Z,30.97
2019-05-26T23:32:41.220Z,29.55
2019-05-26T23:35:13.275Z,24.02
2019-05-26T23:37:45.414Z,27.00
2019-05-26T23:40:17.378Z,27.85
2019-05-26T23:42:49.373Z,23.12
2019-05-26T23:45:21.474Z,27.00
2019-05-26T23:47:53.412Z,28.10
2019-05-26T23:50:25.423Z,31.70
2019-05-26T23:52:57.394Z,36.10
2019-05-26T23:55:29.415Z,27.27
2019-05-26T23:58:01.387Z,27.27
